Brent, Alabama
Current Conditions -  °F | °C
As of 11:53 AM on Monday 26 Jan 2015 (Local Time) from KEET Reporting Station
Overcast Overcast  
Wind Chill: 37°   Ceiling: 2100
Heat Index: 42°   Visibility: 10mi
Dew Point: 33°   Wind: 8mph
Humidity: 70%   Direction: 310°NW
Pressure: 30.01"   Gusts: NA
Location:  32.94°N, 87.16°W
Report Text: KEET 261753Z AUTO 31007KT 10SM BKN021 OVC026 06/01 A3001 RMK AO2 SLP163 T00560006 10061 20044 50005
Loading
Personal Weather Stations






























Interactive Weather Map New forecast layout! Learn more

10-Day Weather Forecast

Advertisements
Track Severe Weather on mobile